Time;durP1;ratioP1;P1;durP2;ratioP2;P2;SDS_P1;SDS_P2;PMS_P1;PMS_P2;Temp;Humidity;BMP_temperature;BMP_pressure;BME280_temperature;BME280_humidity;BME280_pressure;Samples;Min_cycle;Max_cycle;Signal;HPM_P1;HPM_P2
2021/04/11 00:01:05;;;;;;;26.60;14.13;;;281.80;1433.60;;;;;;5075080;28;20028;-81
2021/04/11 00:03:31;;;;;;;19.35;12.07;;;281.80;1433.60;;;;;;5087990;28;20028;-81
2021/04/11 00:05:57;;;;;;;20.33;11.05;;;281.70;1408.00;;;;;;5087417;28;20465;-81
2021/04/11 00:08:23;;;;;;;20.63;11.48;;;281.70;1433.60;;;;;;5092468;28;20028;-81
2021/04/11 00:10:54;;;;;;;23.80;12.63;;;281.60;1433.60;;;;;;5084470;28;20024;-82
2021/04/11 00:13:27;;;;;;;26.90;14.00;;;281.60;1433.60;;;;;;5075068;28;20037;-81
2021/04/11 00:15:53;;;;;;;27.35;13.25;;;256.90;1433.60;;;;;;5095046;28;20078;-82
2021/04/11 00:18:19;;;;;;;21.60;13.18;;;256.90;1433.60;;;;;;5129071;27;20541;-81
2021/04/11 00:20:45;;;;;;;30.35;14.85;;;256.80;1459.20;;;;;;5095072;28;20035;-82
2021/04/11 00:23:11;;;;;;;25.67;15.05;;;256.80;1459.20;;;;;;5090871;28;20485;-82
2021/04/11 00:25:39;;;;;;;36.08;16.33;;;256.80;1433.60;;;;;;5091621;28;20020;-81
2021/04/11 00:28:07;;;;;;;29.23;14.90;;;256.80;1459.20;;;;;;5094459;28;20473;-81
2021/04/11 00:30:33;;;;;;;28.67;14.57;;;256.70;1459.20;;;;;;5075114;28;20041;-81
2021/04/11 00:33:01;;;;;;;25.05;14.52;;;256.70;1459.20;;;;;;5084078;28;20209;-81
2021/04/11 00:35:28;;;;;;;24.92;14.00;;;256.70;1484.80;;;;;;5093145;28;20481;-81
2021/04/11 00:37:54;;;;;;;30.30;14.52;;;256.70;1459.20;;;;;;5094582;28;20081;-82
2021/04/11 00:40:27;;;;;;;28.27;16.33;;;256.60;1459.20;;;;;;5094423;28;20542;-82
2021/04/11 00:43:06;;;;;;;25.15;14.60;;;256.50;1459.20;;;;;;5082236;28;20107;-82
2021/04/11 00:45:59;;;;;;;29.40;16.85;;;256.50;1484.80;;;;;;5094508;28;20035;-82
2021/04/11 00:48:27;;;;;;;32.05;17.27;;;256.50;1484.80;;;;;;5078614;28;20103;-84
2021/04/11 00:50:54;;;;;;;41.95;20.50;;;256.50;1484.80;;;;;;5094329;28;20073;-84
2021/04/11 00:53:20;;;;;;;45.60;20.20;;;256.50;1484.80;;;;;;5094335;28;20028;-83
2021/04/11 00:55:47;;;;;;;32.58;18.05;;;256.60;1484.80;;;;;;5094515;28;20031;-83
2021/04/11 00:58:13;;;;;;;34.65;17.70;;;256.50;1484.80;;;;;;5097189;28;20028;-83
2021/04/11 01:00:39;;;;;;;45.30;20.42;;;256.50;1459.20;;;;;;5119364;27;20020;-83
2021/04/11 01:03:07;;;;;;;35.88;19.05;;;256.50;1459.20;;;;;;5073981;28;20078;-83
2021/04/11 01:05:35;;;;;;;34.15;17.88;;;256.50;1459.20;;;;;;5076546;28;20386;-84
2021/04/11 01:08:11;;;;;;;40.92;20.30;;;256.50;1459.20;;;;;;5074772;28;20095;-81
2021/04/11 01:10:44;;;;;;;39.20;18.75;;;256.40;1459.20;;;;;;5073673;28;20543;-81
2021/04/11 01:13:10;;;;;;;34.33;17.30;;;256.40;1459.20;;;;;;5074365;28;20033;-81
2021/04/11 01:15:36;;;;;;;28.77;16.08;;;256.40;1484.80;;;;;;5079208;28;20119;-81
2021/04/11 01:18:03;;;;;;;29.67;15.35;;;256.40;1484.80;;;;;;5074716;28;20040;-80
2021/04/11 01:20:31;;;;;;;31.27;14.73;;;256.30;1484.80;;;;;;5082950;28;20068;-80
2021/04/11 01:23:19;;;;;;;29.85;16.70;;;256.40;1484.80;;;;;;5093570;28;20020;-80
2021/04/11 01:25:48;;;;;;;29.48;14.90;;;256.30;1484.80;;;;;;5074722;28;20063;-82
2021/04/11 01:28:21;;;;;;;35.05;18.85;;;256.30;1484.80;;;;;;5093339;28;20385;-81
2021/04/11 01:30:48;;;;;;;37.25;20.25;;;256.20;1510.40;;;;;;5093813;28;20500;-81
2021/04/11 01:33:17;;;;;;;42.63;20.67;;;256.10;1510.40;;;;;;5075280;28;20151;-81
2021/04/11 01:35:45;;;;;;;34.42;20.58;;;256.10;1510.40;;;;;;5077383;28;20024;-81
2021/04/11 01:38:12;;;;;;;30.92;19.05;;;256.00;1510.40;;;;;;5074230;28;20040;-81
2021/04/11 01:40:44;;;;;;;32.85;17.88;;;256.00;1510.40;;;;;;5093968;28;20849;-83
2021/04/11 01:43:11;;;;;;;33.97;17.92;;;256.00;1510.40;;;;;;5088636;28;20024;-83
2021/04/11 01:45:39;;;;;;;36.85;16.75;;;256.00;1510.40;;;;;;5085516;28;20432;-82
2021/04/11 01:48:06;;;;;;;32.92;16.13;;;256.00;1510.40;;;;;;5093144;28;20024;-82
2021/04/11 01:50:33;;;;;;;31.30;18.88;;;231.30;1510.40;;;;;;5086031;28;20032;-83
2021/04/11 01:52:59;;;;;;;34.20;18.42;;;231.30;1510.40;;;;;;5086060;28;20077;-83
2021/04/11 01:55:27;;;;;;;37.15;19.90;;;231.30;1510.40;;;;;;5085901;28;20404;-82
2021/04/11 01:57:55;;;;;;;39.97;19.77;;;231.30;1510.40;;;;;;5088187;28;20055;-82
2021/04/11 02:00:24;;;;;;;35.47;17.85;;;231.30;1510.40;;;;;;5075329;28;20051;-82
2021/04/11 02:02:58;;;;;;;34.70;18.13;;;231.20;1536.00;;;;;;5080700;28;20077;-82
2021/04/11 02:05:24;;;;;;;35.22;18.17;;;231.20;1536.00;;;;;;5074116;28;20108;-82
2021/04/11 02:07:53;;;;;;;33.53;18.13;;;231.20;1536.00;;;;;;5082757;28;20024;-82
2021/04/11 02:10:25;;;;;;;36.28;18.35;;;231.20;1536.00;;;;;;5092917;28;20455;-81
2021/04/11 02:12:52;;;;;;;34.90;18.83;;;231.20;1536.00;;;;;;5076004;28;20489;-83
2021/04/11 02:15:24;;;;;;;37.75;17.23;;;231.20;1536.00;;;;;;5090388;28;20109;-81
2021/04/11 02:17:52;;;;;;;35.72;18.20;;;231.20;1561.60;;;;;;5090577;28;20473;-82
2021/04/11 02:20:20;;;;;;;42.38;20.98;;;231.20;1536.00;;;;;;5077494;28;20049;-83
2021/04/11 02:22:47;;;;;;;37.53;19.25;;;231.10;1561.60;;;;;;5092282;28;20069;-82
2021/04/11 02:25:17;;;;;;;39.10;18.85;;;231.10;1587.20;;;;;;5095220;28;20017;-81
2021/04/11 02:27:43;;;;;;;31.77;17.15;;;231.10;1587.20;;;;;;5084112;28;20025;-82
2021/04/11 02:30:12;;;;;;;28.25;16.08;;;231.10;1587.20;;;;;;5085679;28;20081;-82
2021/04/11 02:32:38;;;;;;;34.25;17.25;;;231.10;1612.80;;;;;;5092961;28;20114;-82
2021/04/11 02:35:05;;;;;;;30.17;16.45;;;231.10;1612.80;;;;;;5092828;28;20024;-81
2021/04/11 02:37:33;;;;;;;33.88;17.17;;;231.10;1612.80;;;;;;5093871;28;20028;-81
2021/04/11 02:40:00;;;;;;;32.67;15.57;;;231.00;1638.40;;;;;;5076992;28;20108;-82
2021/04/11 02:42:30;;;;;;;23.15;14.93;;;231.00;1638.40;;;;;;5092759;28;20047;-82
2021/04/11 02:45:05;;;;;;;23.02;15.65;;;231.00;1638.40;;;;;;5088454;28;20040;-82
2021/04/11 02:47:30;;;;;;;27.75;15.68;;;231.00;1638.40;;;;;;5089625;28;20020;-81
2021/04/11 02:49:56;;;;;;;26.98;14.38;;;230.90;1638.40;;;;;;5078683;28;20065;-82
2021/04/11 02:52:33;;;;;;;31.63;16.30;;;230.90;1664.00;;;;;;5092917;28;20080;-83
2021/04/11 02:55:00;;;;;;;27.77;15.70;;;230.90;1664.00;;;;;;5092621;28;20036;-82
2021/04/11 02:57:27;;;;;;;29.38;15.13;;;230.90;1664.00;;;;;;5087237;28;20097;-82
2021/04/11 02:59:56;;;;;;;29.75;15.45;;;230.90;1664.00;;;;;;5077269;28;20062;-82
2021/04/11 03:02:23;;;;;;;22.25;14.75;;;230.90;1664.00;;;;;;5077482;28;20031;-82
2021/04/11 03:04:53;;;;;;;27.17;16.23;;;230.90;1664.00;;;;;;5086682;28;20123;-85
2021/04/11 03:07:29;;;;;;;22.48;14.63;;;230.90;1664.00;;;;;;5074392;28;20477;-82
2021/04/11 03:10:07;;;;;;;24.88;16.60;;;230.90;1664.00;;;;;;5073191;28;20111;-82
2021/04/11 03:12:34;;;;;;;23.00;15.32;;;230.90;1664.00;;;;;;5090966;28;20097;-82
2021/04/11 03:15:00;;;;;;;28.00;16.88;;;230.90;1664.00;;;;;;5093604;28;20052;-82
2021/04/11 03:17:28;;;;;;;26.90;16.25;;;230.80;1664.00;;;;;;5080116;28;20027;-82
2021/04/11 03:20:03;;;;;;;22.33;14.95;;;230.80;1689.60;;;;;;5093607;28;20031;-83
2021/04/11 03:22:29;;;;;;;27.45;14.32;;;230.80;1664.00;;;;;;5110314;28;20021;-82
2021/04/11 03:24:55;;;;;;;29.38;16.33;;;230.80;1664.00;;;;;;5114562;27;20039;-83
2021/04/11 03:27:53;;;;;;;30.25;14.57;;;230.80;1664.00;;;;;;5091773;28;20036;-82
2021/04/11 03:30:31;;;;;;;29.17;15.50;;;230.80;1689.60;;;;;;5077894;28;20071;-83
2021/04/11 03:33:02;;;;;;;29.40;16.30;;;230.80;1664.00;;;;;;5096519;28;20073;-82
2021/04/11 03:35:31;;;;;;;26.98;15.20;;;230.80;1664.00;;;;;;5090563;28;20073;-82
2021/04/11 03:38:00;;;;;;;26.33;16.13;;;230.80;1664.00;;;;;;5075858;28;20029;-81
2021/04/11 03:40:29;;;;;;;31.45;17.55;;;230.80;1664.00;;;;;;5092526;28;20481;-82
2021/04/11 03:43:02;;;;;;;33.00;16.58;;;230.70;1664.00;;;;;;5095746;28;20077;-83
2021/04/11 03:45:32;;;;;;;33.95;16.95;;;230.70;1664.00;;;;;;5092806;28;20104;-83
2021/04/11 03:48:07;;;;;;;34.50;18.37;;;230.70;1638.40;;;;;;5093374;28;20449;-83
2021/04/11 03:50:38;;;;;;;32.88;15.55;;;230.70;1638.40;;;;;;5081207;28;20028;-83
2021/04/11 03:53:10;;;;;;;31.85;16.67;;;230.70;1638.40;;;;;;5095961;28;20020;-83
2021/04/11 03:55:39;;;;;;;30.05;16.63;;;230.70;1638.40;;;;;;5090643;28;20074;-83
2021/04/11 03:58:14;;;;;;;29.45;17.48;;;230.70;1638.40;;;;;;5076907;28;20087;-85
2021/04/11 04:00:48;;;;;;;29.42;16.38;;;230.60;1638.40;;;;;;5077478;28;20466;-84
2021/04/11 04:03:18;;;;;;;37.28;19.27;;;230.60;1638.40;;;;;;5075250;28;20021;-84
2021/04/11 04:05:46;;;;;;;33.03;17.47;;;230.60;1638.40;;;;;;5082895;28;20016;-83
2021/04/11 04:08:12;;;;;;;32.40;16.73;;;230.60;1638.40;;;;;;5095593;28;20035;-83
2021/04/11 04:10:48;;;;;;;35.10;18.95;;;230.50;1638.40;;;;;;5093097;28;20027;-82
2021/04/11 04:13:55;;;;;;;30.13;16.88;;;230.50;1612.80;;;;;;5095334;28;20466;-82
2021/04/11 04:16:37;;;;;;;31.83;17.75;;;230.50;1612.80;;;;;;5046405;28;20053;-83
2021/04/11 04:19:21;;;;;;;27.08;18.13;;;230.60;1612.80;;;;;;5092385;28;20024;-83
2021/04/11 04:21:59;;;;;;;23.77;13.32;;;230.50;1587.20;;;;;;5094558;28;20032;-83
2021/04/11 04:24:57;;;;;;;22.83;14.70;;;230.60;1587.20;;;;;;5086915;28;20021;-83
2021/04/11 04:27:41;;;;;;;23.50;12.77;;;230.70;1561.60;;;;;;5075890;28;20021;-82
2021/04/11 04:30:26;;;;;;;15.10;8.68;;;230.70;1536.00;;;;;;5086091;28;20016;-82
2021/04/11 04:33:01;;;;;;;19.65;10.52;;;230.80;1536.00;;;;;;5094973;28;20016;-83
2021/04/11 04:35:36;;;;;;;17.77;10.05;;;230.80;1510.40;;;;;;5095063;28;20074;-83
2021/04/11 04:38:20;;;;;;;15.13;9.88;;;230.90;1510.40;;;;;;5094296;28;20158;-82
2021/04/11 04:41:01;;;;;;;17.23;9.57;;;231.00;1510.40;;;;;;5096141;28;20081;-82
2021/04/11 04:43:40;;;;;;;17.33;11.20;;;231.10;1484.80;;;;;;5078100;28;20044;-82
2021/04/11 04:46:28;;;;;;;17.65;9.10;;;231.20;1484.80;;;;;;5075894;28;20043;-82
2021/04/11 04:49:20;;;;;;;22.33;11.05;;;231.20;1484.80;;;;;;5091281;28;20054;-83
2021/04/11 04:51:59;;;;;;;20.75;9.15;;;231.30;1459.20;;;;;;5078454;28;20059;-82
2021/04/11 04:54:49;;;;;;;18.73;9.65;;;231.30;1459.20;;;;;;5078561;28;20025;-82
2021/04/11 04:57:35;;;;;;;18.27;9.27;;;256.00;1459.20;;;;;;5076159;28;20077;-83
2021/04/11 05:00:21;;;;;;;17.30;10.02;;;256.00;1433.60;;;;;;5094455;28;20486;-83
2021/04/11 05:02:57;;;;;;;19.30;9.32;;;256.10;1433.60;;;;;;5088135;28;20031;-82
2021/04/11 05:05:25;;;;;;;17.67;9.40;;;256.20;1433.60;;;;;;5097805;28;20032;-81
2021/04/11 05:08:03;;;;;;;21.83;9.13;;;256.20;1433.60;;;;;;5082436;28;20032;-81
2021/04/11 05:10:52;;;;;;;17.42;9.15;;;256.30;1433.60;;;;;;5080333;28;20024;-81
2021/04/11 05:13:22;;;;;;;15.98;8.75;;;256.40;1433.60;;;;;;5095455;28;20111;-81
2021/04/11 05:15:59;;;;;;;12.95;8.75;;;256.50;1433.60;;;;;;5095062;28;20046;-79
2021/04/11 05:18:39;;;;;;;16.88;8.65;;;256.50;1408.00;;;;;;5087444;28;20085;-81
2021/04/11 05:21:14;;;;;;;12.27;7.75;;;256.60;1408.00;;;;;;5079616;28;20036;-81
2021/04/11 05:24:11;;;;;;;10.93;7.35;;;256.70;1408.00;;;;;;5073327;28;20024;-81
2021/04/11 05:26:47;;;;;;;14.65;7.97;;;256.70;1408.00;;;;;;5065236;28;20146;-81
2021/04/11 05:29:21;;;;;;;14.32;8.75;;;256.70;1408.00;;;;;;5081455;28;20052;-81
2021/04/11 05:31:47;;;;;;;31.00;9.15;;;256.70;1408.00;;;;;;5073660;28;20025;-81
2021/04/11 05:34:17;;;;;;;13.80;8.15;;;256.80;1382.40;;;;;;5089514;28;20030;-79
2021/04/11 05:36:43;;;;;;;18.85;8.25;;;256.80;1382.40;;;;;;5088874;28;20029;-80
2021/04/11 05:39:18;;;;;;;14.88;9.50;;;256.90;1382.40;;;;;;5080078;28;20038;-80
2021/04/11 05:41:58;;;;;;;13.05;8.43;;;281.60;1408.00;;;;;;5092821;28;20020;-81
2021/04/11 05:44:31;;;;;;;15.18;9.10;;;281.70;1408.00;;;;;;5077677;28;20019;-81
2021/04/11 05:47:05;;;;;;;24.50;11.40;;;281.70;1408.00;;;;;;5073691;28;20028;-81
2021/04/11 05:49:52;;;;;;;19.35;10.07;;;281.70;1408.00;;;;;;5082641;28;20028;-81
2021/04/11 05:52:32;;;;;;;20.73;10.43;;;281.80;1408.00;;;;;;5075795;28;20025;-81
2021/04/11 05:55:00;;;;;;;23.17;12.02;;;281.90;1408.00;;;;;;5083014;28;20032;-80
2021/04/11 05:57:30;;;;;;;26.83;10.48;;;281.90;1382.40;;;;;;5093421;28;20474;-82
2021/04/11 06:00:09;;;;;;;18.77;10.32;;;282.00;1408.00;;;;;;5074761;28;20036;-81
2021/04/11 06:02:49;;;;;;;12.57;7.72;;;282.10;1382.40;;;;;;5092121;28;20392;-81
2021/04/11 06:05:32;;;;;;;14.95;7.97;;;282.10;1408.00;;;;;;5089501;28;20028;-81
2021/04/11 06:08:25;;;;;;;13.63;7.35;;;282.20;1382.40;;;;;;5087372;28;20036;-81
2021/04/11 06:11:05;;;;;;;18.38;8.77;;;282.30;1382.40;;;;;;5074140;28;20078;-81
2021/04/11 06:13:58;;;;;;;19.67;10.10;;;282.30;1382.40;;;;;;5074373;28;20119;-81
2021/04/11 06:16:26;;;;;;;13.85;7.38;;;282.40;1382.40;;;;;;5074015;28;20028;-80
2021/04/11 06:18:54;;;;;;;12.13;7.38;;;282.50;1382.40;;;;;;5086581;28;20139;-80
2021/04/11 06:21:44;;;;;;;14.27;7.93;;;307.20;1433.60;;;;;;5078390;28;20115;-80
2021/04/11 06:24:43;;;;;;;14.60;6.63;;;307.30;1433.60;;;;;;5072125;28;20097;-79
2021/04/11 06:27:15;;;;;;;14.63;7.65;;;307.30;1433.60;;;;;;5089294;28;20067;-80
2021/04/11 06:29:53;;;;;;;12.77;7.93;;;307.40;1408.00;;;;;;5073888;28;20044;-81
2021/04/11 06:32:21;;;;;;;17.70;8.35;;;307.50;1433.60;;;;;;5073577;28;20028;-78
2021/04/11 06:35:00;;;;;;;12.88;6.65;;;307.50;1433.60;;;;;;5086950;28;20050;-84
2021/04/11 06:37:28;;;;;;;18.65;8.32;;;307.60;1408.00;;;;;;5093317;28;20085;-82
2021/04/11 06:39:55;;;;;;;16.98;7.65;;;307.60;1408.00;;;;;;5091239;28;20039;-84
2021/04/11 06:42:34;;;;;;;12.80;7.35;;;307.70;1408.00;;;;;;5092951;28;20036;-80
2021/04/11 06:45:23;;;;;;;16.20;8.00;;;307.80;1433.60;;;;;;5093708;28;20024;-80
2021/04/11 06:48:17;;;;;;;11.40;8.00;;;307.90;1433.60;;;;;;5097999;28;20481;-81
2021/04/11 06:50:53;;;;;;;10.77;8.85;;;308.00;1408.00;;;;;;5090946;28;20078;-80
2021/04/11 06:53:41;;;;;;;14.68;8.15;;;308.00;1433.60;;;;;;5077777;28;20062;-81
2021/04/11 06:56:37;;;;;;;11.20;6.80;;;308.10;1408.00;;;;;;5076198;28;20486;-79
2021/04/11 06:59:05;;;;;;;9.38;6.28;;;332.80;1408.00;;;;;;5081971;28;20470;-79
2021/04/11 07:02:02;;;;;;;17.52;7.65;;;332.90;1433.60;;;;;;5076900;28;20032;-80
2021/04/11 07:04:30;;;;;;;14.52;7.00;;;333.10;1408.00;;;;;;5081922;28;20012;-79
2021/04/11 07:07:05;;;;;;;13.82;8.15;;;333.10;1433.60;;;;;;5095127;28;20512;-76
2021/04/11 07:09:43;;;;;;;13.60;6.85;;;333.30;1408.00;;;;;;5095115;28;20036;-79
2021/04/11 07:12:59;;;;;;;11.20;7.18;;;333.30;1382.40;;;;;;5094891;28;20016;-78
2021/04/11 07:15:34;;;;;;;13.48;6.97;;;333.40;1382.40;;;;;;5022983;28;20052;-81
2021/04/11 07:18:21;;;;;;;18.50;8.38;;;333.50;1382.40;;;;;;5077604;28;20037;-79
2021/04/11 07:21:09;;;;;;;15.00;7.35;;;333.60;1408.00;;;;;;5085008;28;20094;-82
2021/04/11 07:23:56;;;;;;;12.65;7.03;;;333.70;1382.40;;;;;;5093319;28;20091;-77
2021/04/11 07:26:42;;;;;;;10.90;6.65;;;358.40;1382.40;;;;;;5091627;28;20020;-79
2021/04/11 07:29:13;;;;;;;11.13;6.53;;;358.40;1382.40;;;;;;5084549;28;20055;-77
2021/04/11 07:31:45;;;;;;;19.45;9.68;;;358.50;1356.80;;;;;;5094489;28;20016;-80
2021/04/11 07:34:40;;;;;;;17.42;7.43;;;358.50;1382.40;;;;;;5091974;28;20481;-81
2021/04/11 07:37:32;;;;;;;14.43;6.75;;;358.60;1356.80;;;;;;5089528;28;20040;-79
2021/04/11 07:40:17;;;;;;;13.75;7.35;;;358.60;1331.20;;;;;;5095979;28;20023;-82
2021/04/11 07:43:05;;;;;;;14.40;7.40;;;358.70;1331.20;;;;;;5078599;28;20032;-79
2021/04/11 07:45:49;;;;;;;14.18;7.78;;;358.70;1331.20;;;;;;5107283;28;20051;-76
2021/04/11 07:48:39;;;;;;;14.38;6.80;;;358.70;1331.20;;;;;;5105405;28;20117;-80
2021/04/11 07:51:54;;;;;;;11.25;6.28;;;358.80;1356.80;;;;;;5088129;28;20504;-80
2021/04/11 07:54:34;;;;;;;10.02;5.30;;;358.90;1356.80;;;;;;5095054;28;20036;-79
2021/04/11 07:57:25;;;;;;;;;;;359.00;1382.40;;;;;;5095452;28;20024;-79
2021/04/11 08:00:06;;;;;;;17.10;7.28;;;359.10;1382.40;;;;;;5080106;28;19911;-80
2021/04/11 08:02:50;;;;;;;8.10;5.65;;;359.10;1382.40;;;;;;5089489;28;20036;-80
2021/04/11 08:05:50;;;;;;;15.07;6.03;;;359.20;1382.40;;;;;;5086313;28;20021;-79
2021/04/11 08:08:28;;;;;;;11.40;6.83;;;359.20;1356.80;;;;;;5079899;28;20020;-79
2021/04/11 08:11:18;;;;;;;16.75;7.32;;;359.30;1356.80;;;;;;5093943;28;20062;-80
2021/04/11 08:13:53;;;;;;;13.88;6.43;;;384.00;1331.20;;;;;;5093810;28;20385;-80
2021/04/11 08:16:47;;;;;;;14.20;6.30;;;384.00;1331.20;;;;;;5094755;28;20024;-78
2021/04/11 08:19:21;;;;;;;9.80;6.72;;;384.10;1331.20;;;;;;5095939;28;20024;-80
2021/04/11 08:21:50;;;;;;;11.30;5.97;;;384.30;1356.80;;;;;;5089217;28;20025;-79
2021/04/11 08:24:45;;;;;;;13.90;5.63;;;384.30;1356.80;;;;;;5092111;28;20028;-79
2021/04/11 08:27:30;;;;;;;9.07;4.80;;;384.50;1356.80;;;;;;5095712;28;20016;-79
2021/04/11 08:30:15;;;;;;;15.05;6.00;;;384.70;1459.20;;;;;;5063753;28;20043;-81
2021/04/11 08:33:16;;;;;;;15.48;7.38;;;384.80;1356.80;;;;;;5095758;28;20099;-79
2021/04/11 08:36:12;;;;;;;17.67;6.47;;;384.90;1331.20;;;;;;5095154;28;20056;-81
2021/04/11 08:39:15;;;;;;;16.50;8.38;;;409.60;1408.00;;;;;;5106016;28;20478;-78
2021/04/11 08:41:53;;;;;;;13.23;5.95;;;409.70;1382.40;;;;;;5074821;28;20034;-77
2021/04/11 08:44:43;;;;;;;12.52;6.28;;;409.90;1382.40;;;;;;5093812;28;20016;-86
2021/04/11 08:47:56;;;;;;;12.75;7.20;;;410.00;1356.80;;;;;;5095318;28;20473;-87
2021/04/11 08:50:41;;;;;;;35.67;12.75;;;410.10;1331.20;;;;;;5071870;28;20033;-86
2021/04/11 08:53:19;;;;;;;27.63;10.52;;;410.20;1433.60;;;;;;5082150;28;20029;-80
2021/04/11 08:55:57;;;;;;;26.63;13.77;;;410.30;1331.20;;;;;;5074955;28;20428;-80
2021/04/11 08:58:42;;;;;;;16.13;8.00;;;410.40;1305.60;;;;;;5075279;28;20031;-81
2021/04/11 09:01:21;;;;;;;14.48;8.02;;;410.40;1280.00;;;;;;5075383;28;20466;-81
2021/04/11 09:04:03;;;;;;;11.93;6.25;;;410.50;1280.00;;;;;;5075105;28;20027;-81
2021/04/11 09:06:34;;;;;;;21.73;10.02;;;410.50;1280.00;;;;;;5073953;28;20068;-83
2021/04/11 09:12:37;;;;;;;14.60;6.50;;;435.30;1280.00;;;;;;5075268;28;20086;-83
2021/04/11 09:15:17;;;;;;;25.05;6.85;;;435.40;1305.60;;;;;;5073708;28;20048;-83
2021/04/11 09:18:06;;;;;;;12.52;5.80;;;435.50;1228.80;;;;;;5073445;28;20032;-82
2021/04/11 09:20:55;;;;;;;12.60;5.35;;;435.50;1203.20;;;;;;5071074;28;20124;-80
2021/04/11 09:23:45;;;;;;;11.35;5.45;;;435.50;1152.00;;;;;;5075507;28;20036;-81
2021/04/11 09:26:33;;;;;;;7.07;4.93;;;435.60;1126.40;;;;;;5073298;28;20485;-82
2021/04/11 09:29:07;;;;;;;8.13;4.60;;;435.70;1126.40;;;;;;5073257;28;20023;-82
2021/04/11 09:31:52;;;;;;;7.05;5.05;;;435.80;1100.80;;;;;;5074328;28;20028;-81
2021/04/11 09:34:27;;;;;;;8.90;4.70;;;435.80;1126.40;;;;;;5073158;28;20024;-81
2021/04/11 09:37:28;;;;;;;6.13;4.18;;;435.90;1126.40;;;;;;5073226;28;20070;-81
2021/04/11 09:40:30;;;;;;;9.90;4.65;;;436.00;1100.80;;;;;;5072985;28;20440;-82
2021/04/11 09:43:34;;;;;;;5.65;4.15;;;436.10;1100.80;;;;;;5074833;28;20778;-81
2021/04/11 09:46:24;;;;;;;12.88;4.32;;;460.80;1152.00;;;;;;5072430;28;20025;-81
2021/04/11 09:49:20;;;;;;;10.15;4.60;;;460.90;1152.00;;;;;;5073060;28;20392;-80
2021/04/11 09:52:05;;;;;;;5.80;4.20;;;461.00;1100.80;;;;;;5067141;28;20033;-80
2021/04/11 09:54:44;;;;;;;11.20;4.35;;;461.00;1075.20;;;;;;5073061;28;20039;-80
2021/04/11 09:57:29;;;;;;;8.98;4.55;;;461.10;1100.80;;;;;;5072464;28;20105;-81
2021/04/11 10:00:04;;;;;;;10.88;5.43;;;461.10;1075.20;;;;;;5074726;28;20024;-81
2021/04/11 10:02:48;;;;;;;92.35;38.90;;;461.20;1152.00;;;;;;5073009;28;20393;-81
2021/04/11 10:05:26;;;;;;;99.72;39.83;;;461.30;1126.40;;;;;;5074061;28;20040;-80
2021/04/11 10:08:29;;;;;;;20.38;8.25;;;461.40;1126.40;;;;;;5072944;28;20021;-80
2021/04/11 10:11:10;;;;;;;16.10;6.35;;;461.50;1100.80;;;;;;5073606;28;20040;-81
2021/04/11 10:13:41;;;;;;;;;;;461.60;1075.20;;;;;;5074614;28;20024;-81
2021/04/11 10:16:55;;;;;;;16.20;6.03;;;461.60;1075.20;;;;;;5088689;28;20020;-80
2021/04/11 10:19:54;;;;;;;12.45;5.32;;;461.70;1075.20;;;;;;5050242;28;20087;-81
2021/04/11 10:22:42;;;;;;;10.07;4.93;;;486.40;1049.60;;;;;;5073686;28;20025;-80
2021/04/11 10:25:40;;;;;;;8.02;5.43;;;486.50;1049.60;;;;;;5072649;28;20046;-81
2021/04/11 10:28:41;;;;;;;11.00;4.60;;;486.60;1049.60;;;;;;5074350;28;20720;-81
2021/04/11 10:31:31;;;;;;;14.07;8.30;;;486.60;998.40;;;;;;5063021;28;20043;-81
2021/04/11 10:34:31;;;;;;;14.30;8.05;;;486.70;1024.00;;;;;;5071678;28;20461;-80
2021/04/11 10:37:33;;;;;;;10.25;7.28;;;486.70;1024.00;;;;;;5072198;28;20121;-81
2021/04/11 10:40:36;;;;;;;15.05;7.55;;;486.80;1049.60;;;;;;5072309;28;20024;-81
2021/04/11 10:43:20;;;;;;;29.23;20.35;;;486.90;998.40;;;;;;5073971;28;20029;-80
2021/04/11 10:46:09;;;;;;;29.38;17.23;;;486.90;947.20;;;;;;5073412;28;20027;-80
2021/04/11 10:48:47;;;;;;;30.10;17.52;;;486.90;972.80;;;;;;5072092;28;20025;-80
2021/04/11 10:51:40;;;;;;;47.85;22.92;;;486.90;947.20;;;;;;5073275;28;20020;-79
2021/04/11 10:54:24;;;;;;;39.92;21.95;;;486.90;972.80;;;;;;5073612;28;20032;-80
2021/04/11 10:57:22;;;;;;;13.07;8.13;;;487.00;947.20;;;;;;5071990;28;20074;-80
2021/04/11 11:00:12;;;;;;;20.73;10.57;;;487.00;947.20;;;;;;5073405;28;20017;-80
2021/04/11 11:02:56;;;;;;;30.60;15.38;;;487.00;972.80;;;;;;5071852;28;20036;-80
2021/04/11 11:05:34;;;;;;;39.78;22.50;;;487.10;998.40;;;;;;5072219;28;20032;-80
2021/04/11 11:08:32;;;;;;;38.10;25.30;;;487.20;972.80;;;;;;5075634;28;20021;-79
2021/04/11 11:11:19;;;;;;;36.97;20.50;;;487.20;972.80;;;;;;5071552;28;20082;-78
2021/04/11 11:13:48;;;;;;;248.82;178.25;;;487.30;972.80;;;;;;5079315;28;20074;-80
2021/04/11 11:16:47;;;;;;;39.53;28.35;;;487.30;947.20;;;;;;5079059;28;20512;-79
2021/04/11 11:19:25;;;;;;;19.60;10.32;;;512.00;972.80;;;;;;5078425;28;20036;-77
2021/04/11 11:22:23;;;;;;;102.78;73.18;;;512.00;972.80;;;;;;5090871;28;20116;-79
2021/04/11 11:25:20;;;;;;;49.92;33.90;;;512.10;998.40;;;;;;5091152;28;20043;-79
2021/04/11 11:27:59;;;;;;;77.70;54.05;;;512.20;947.20;;;;;;5056214;28;20028;-82
2021/04/11 11:30:34;;;;;;;48.70;32.22;;;512.30;972.80;;;;;;5077146;28;20093;-79
2021/04/11 11:33:07;;;;;;;147.50;99.07;;;512.40;921.60;;;;;;5076060;28;20044;-78
2021/04/11 11:35:43;;;;;;;100.10;76.13;;;512.40;947.20;;;;;;5076200;28;20020;-80
2021/04/11 11:38:21;;;;;;;35.17;24.63;;;512.40;921.60;;;;;;5083491;28;20020;-82
2021/04/11 11:41:01;;;;;;;31.75;23.55;;;512.40;921.60;;;;;;5090790;28;20024;-82
2021/04/11 11:43:36;;;;;;;9.55;5.38;;;512.40;896.00;;;;;;5096825;28;20103;-86
2021/04/11 11:46:10;;;;;;;57.72;40.47;;;512.40;896.00;;;;;;5096092;28;20028;-81
2021/04/11 11:49:22;;;;;;;27.45;20.52;;;512.40;896.00;;;;;;5095197;28;20034;-81
2021/04/11 11:52:22;;;;;;;9.82;5.70;;;512.40;896.00;;;;;;5081005;28;20036;-80
2021/04/11 11:54:54;;;;;;;30.48;19.63;;;512.40;870.40;;;;;;5095878;28;20028;-80
2021/04/11 11:57:44;;;;;;;10.07;4.88;;;512.40;870.40;;;;;;5078750;28;20016;-82
2021/04/11 12:00:15;;;;;;;19.60;7.55;;;512.30;844.80;;;;;;5095552;28;20028;-88
2021/04/11 12:03:00;;;;;;;25.75;10.60;;;512.30;844.80;;;;;;5079955;28;20117;-82
2021/04/11 12:05:46;;;;;;;12.98;5.97;;;512.30;819.20;;;;;;5092923;28;20028;-79
2021/04/11 12:08:40;;;;;;;11.52;6.55;;;512.20;844.80;;;;;;5075616;28;20017;-79
2021/04/11 12:11:30;;;;;;;9.70;4.85;;;512.30;870.40;;;;;;5074414;28;20028;-80
2021/04/11 12:14:12;;;;;;;10.60;4.38;;;512.30;870.40;;;;;;5063773;28;20490;-80
2021/04/11 12:16:59;;;;;;;9.07;4.47;;;512.30;870.40;;;;;;5082657;28;20055;-80
2021/04/11 12:19:29;;;;;;;8.48;4.40;;;512.30;896.00;;;;;;5094782;28;20047;-80
2021/04/11 12:21:59;;;;;;;5.78;3.47;;;512.30;896.00;;;;;;5094177;28;20044;-78
2021/04/11 12:24:39;;;;;;;3.97;2.97;;;512.30;870.40;;;;;;5095691;28;20091;-77
2021/04/11 12:27:08;;;;;;;5.13;2.90;;;512.30;870.40;;;;;;5084119;28;20029;-77
2021/04/11 12:29:46;;;;;;;9.25;2.42;;;512.40;896.00;;;;;;5092875;28;20031;-77
2021/04/11 12:32:37;;;;;;;9.77;2.90;;;512.40;870.40;;;;;;5092218;28;20032;-80
2021/04/11 12:35:19;;;;;;;6.25;2.75;;;512.40;896.00;;;;;;5091822;28;20036;-77
2021/04/11 12:37:54;;;;;;;4.22;2.85;;;512.40;896.00;;;;;;5093155;28;20080;-77
2021/04/11 12:40:50;;;;;;;6.15;2.90;;;512.40;870.40;;;;;;5092249;28;20123;-78
2021/04/11 12:43:22;;;;;;;4.13;2.33;;;512.40;896.00;;;;;;5082607;28;20101;-77
2021/04/11 12:46:23;;;;;;;5.97;3.30;;;512.40;870.40;;;;;;5094957;28;20012;-77
2021/04/11 12:49:17;;;;;;;4.43;3.17;;;512.30;870.40;;;;;;5084660;28;20125;-77
2021/04/11 12:52:02;;;;;;;5.30;3.00;;;512.40;896.00;;;;;;5087367;28;20043;-77
2021/04/11 12:54:46;;;;;;;8.52;4.05;;;512.30;896.00;;;;;;5072896;28;20036;-78
2021/04/11 12:57:24;;;;;;;9.48;4.32;;;512.30;921.60;;;;;;5086696;28;20036;-77
2021/04/11 13:00:25;;;;;;;9.85;4.47;;;512.30;921.60;;;;;;5093200;28;20029;-78
2021/04/11 13:03:03;;;;;;;5.03;2.72;;;512.30;921.60;;;;;;5093780;28;20032;-76
2021/04/11 13:05:41;;;;;;;7.80;3.03;;;512.30;896.00;;;;;;5093374;28;20036;-77
2021/04/11 13:08:41;;;;;;;10.10;3.65;;;512.20;896.00;;;;;;5091247;28;20040;-77